Bellview, Illinois
Current Conditions -  °F | °C
As of 3:54 AM on Friday 21 Nov 2014 (Local Time) from KPIA Reporting Station
Clear Clear  
Wind Chill: -15°   Ceiling: Unl
Heat Index: -10°   Visibility: 10mi
Dew Point: -15°   Wind: 6mph
Humidity: 67%   Direction: 60°ENE
Pressure: 30.4"   Gusts: NA
Location:  40.7064°N, 89.6585°W
Report Text: KPIA 210954Z 06005KT 10SM CLR M10/M15 A3040 RMK AO2 SLP305 T11001150
Loading
Personal Weather Stations






























Interactive Weather Map New forecast layout! Learn more

10-Day Weather Forecast

Advertisements
Track Severe Weather on mobile